Time;durP1;ratioP1;P1;durP2;ratioP2;P2;SDS_P1;SDS_P2;PMS_P1;PMS_P2;Temp;Humidity;BMP_temperature;BMP_pressure;BME280_temperature;BME280_humidity;BME280_pressure;Samples;Min_cycle;Max_cycle;Signal;HPM_P1;HPM_P2
2022/12/07 00:01:20;;;;;;;5.25;4.82;;;;;;;3.35;100.00;98757.25;4224378;27;20210;-45
2022/12/07 00:03:22;;;;;;;4.32;4.00;;;;;;;3.38;100.00;98750.59;4241521;27;20606;-45
2022/12/07 00:05:24;;;;;;;4.78;4.35;;;;;;;3.41;100.00;98745.63;4241831;27;20201;-45
2022/12/07 00:07:25;;;;;;;4.28;3.88;;;;;;;3.43;100.00;98759.81;4226442;27;20261;-46
2022/12/07 00:09:28;;;;;;;3.80;3.50;;;;;;;3.44;100.00;98760.63;4222385;27;20743;-45
2022/12/07 00:11:30;;;;;;;4.38;3.97;;;;;;;3.36;100.00;98744.56;4241045;27;20214;-45
2022/12/07 00:13:32;;;;;;;4.82;4.35;;;;;;;3.30;100.00;98746.22;4224379;27;20784;-47
2022/12/07 00:15:35;;;;;;;4.07;3.67;;;;;;;3.48;100.00;98737.56;4242165;27;20233;-45
2022/12/07 00:17:37;;;;;;;5.03;4.53;;;;;;;3.29;100.00;98736.44;4227236;27;20647;-45
2022/12/07 00:19:39;;;;;;;5.25;4.78;;;;;;;3.36;100.00;98729.19;4238033;27;20259;-45
2022/12/07 00:21:40;;;;;;;3.85;3.55;;;;;;;3.31;100.00;98737.06;4228341;27;20686;-45
2022/12/07 00:23:44;;;;;;;5.97;4.40;;;;;;;3.49;100.00;98731.97;4221565;27;20216;-45
2022/12/07 00:25:47;;;;;;;5.25;4.75;;;;;;;3.20;100.00;98728.69;4224069;27;21086;-45
2022/12/07 00:27:49;;;;;;;4.90;4.28;;;;;;;3.29;100.00;98735.59;4208839;28;20701;-45
2022/12/07 00:29:51;;;;;;;5.47;4.97;;;;;;;3.35;100.00;98735.59;4221398;27;20296;-46
2022/12/07 00:31:52;;;;;;;5.43;4.65;;;;;;;3.33;100.00;98740.38;4240413;27;20236;-45
2022/12/07 00:33:55;;;;;;;5.50;5.10;;;;;;;3.30;100.00;98748.06;4206952;27;20263;-45
2022/12/07 00:35:58;;;;;;;4.53;4.13;;;;;;;3.30;100.00;98743.50;4226941;27;20232;-45
2022/12/07 00:38:00;;;;;;;4.00;3.67;;;;;;;3.30;100.00;98748.91;4235409;27;20205;-45
2022/12/07 00:40:01;;;;;;;4.63;4.30;;;;;;;3.31;100.00;98750.56;4223232;27;20225;-45
2022/12/07 00:42:04;;;;;;;5.55;4.35;;;;;;;3.35;100.00;98749.13;4228765;27;20650;-45
2022/12/07 00:44:09;;;;;;;5.15;4.72;;;;;;;3.45;100.00;98743.38;4226976;28;20238;-45
2022/12/07 00:46:11;;;;;;;6.03;4.43;;;;;;;3.47;100.00;98739.44;4221386;27;20221;-45
2022/12/07 00:48:13;;;;;;;6.05;5.30;;;;;;;3.50;100.00;98739.03;4241043;27;20213;-46
2022/12/07 00:50:15;;;;;;;5.80;5.30;;;;;;;3.31;100.00;98728.94;4226840;27;20296;-45
2022/12/07 00:52:17;;;;;;;5.18;4.68;;;;;;;3.30;100.00;98729.13;4223228;27;20292;-45
2022/12/07 00:54:18;;;;;;;5.80;5.03;;;;;;;3.36;100.00;98734.59;4210524;28;20226;-45
2022/12/07 00:56:25;;;;;;;4.80;4.30;;;;;;;3.34;100.00;98733.94;4240950;27;21164;-45
2022/12/07 00:58:29;;;;;;;5.43;4.93;;;;;;;3.25;100.00;98735.16;4229003;27;20229;-44
2022/12/07 01:00:31;;;;;;;5.47;4.95;;;;;;;3.30;100.00;98735.41;4222296;27;20249;-45
2022/12/07 01:02:33;;;;;;;4.55;4.15;;;;;;;3.31;100.00;98728.94;4226190;27;20292;-45
2022/12/07 01:04:34;;;;;;;5.25;4.35;;;;;;;3.18;100.00;98718.06;4237813;27;20214;-45
2022/12/07 01:06:36;;;;;;;5.13;4.60;;;;;;;3.17;100.00;98724.50;4221701;27;20652;-45
2022/12/07 01:08:38;;;;;;;5.28;4.78;;;;;;;3.21;100.00;98717.63;4239065;27;20248;-45
2022/12/07 01:10:40;;;;;;;5.80;4.53;;;;;;;3.04;100.00;98727.13;4228161;27;20249;-45
2022/12/07 01:12:41;;;;;;;3.85;3.55;;;;;;;3.01;100.00;98716.69;4223374;27;20206;-45
2022/12/07 01:14:43;;;;;;;4.47;4.07;;;;;;;2.95;100.00;98714.75;4241691;27;20212;-46
2022/12/07 01:16:45;;;;;;;4.75;4.35;;;;;;;2.94;100.00;98710.41;4222433;27;20665;-45
2022/12/07 01:18:51;;;;;;;5.57;5.07;;;;;;;2.96;100.00;98713.75;4221942;27;20198;-45
2022/12/07 01:21:11;;;;;;;5.50;5.00;;;;;;;2.97;100.00;98717.28;4219877;27;20640;-46
2022/12/07 01:23:12;;;;;;;4.57;4.18;;;;;;;2.96;100.00;98724.56;4217874;27;20775;-45
2022/12/07 01:25:14;;;;;;;5.28;4.78;;;;;;;3.08;100.00;98712.16;4225653;27;20237;-45
2022/12/07 01:27:16;;;;;;;5.72;4.63;;;;;;;2.80;100.00;98718.63;4226770;27;20217;-45
2022/12/07 01:29:18;;;;;;;5.45;4.82;;;;;;;2.87;100.00;98720.31;4221207;27;20317;-45
2022/12/07 01:31:22;;;;;;;4.80;4.45;;;;;;;2.91;100.00;98727.00;4243282;27;20210;-45
2022/12/07 01:33:26;;;;;;;5.78;5.28;;;;;;;3.04;100.00;98729.81;4219542;27;21135;-45
2022/12/07 01:35:28;;;;;;;5.70;5.13;;;;;;;3.02;100.00;98734.56;4239141;27;20209;-45
2022/12/07 01:37:37;;;;;;;4.28;3.97;;;;;;;3.03;100.00;98728.16;4240114;27;20232;-45
2022/12/07 01:39:39;;;;;;;6.15;5.25;;;;;;;3.09;100.00;98740.03;4208239;28;20455;-45
2022/12/07 01:41:43;;;;;;;5.82;5.22;;;;;;;3.00;100.00;98733.94;4237362;27;20293;-45
2022/12/07 01:44:13;;;;;;;4.82;4.38;;;;;;;3.00;100.00;98733.94;4221299;27;20260;-45
2022/12/07 01:46:14;;;;;;;5.50;5.05;;;;;;;3.09;100.00;98735.47;4220801;27;20591;-45
2022/12/07 01:48:19;;;;;;;5.68;4.70;;;;;;;3.02;100.00;98734.56;4227803;27;20212;-46
2022/12/07 01:50:22;;;;;;;4.22;3.78;;;;;;;3.13;100.00;98731.31;4233765;27;20214;-45
2022/12/07 01:52:27;;;;;;;5.82;5.30;;;;;;;3.15;100.00;98726.53;4201701;28;20268;-45
2022/12/07 01:54:29;;;;;;;5.18;4.60;;;;;;;3.11;100.00;98728.00;4241214;27;20244;-45
2022/12/07 01:56:32;;;;;;;4.78;4.28;;;;;;;3.10;100.00;98731.72;4205729;28;20254;-45
2022/12/07 01:58:34;;;;;;;5.05;4.65;;;;;;;3.14;100.00;98729.47;4227568;27;20304;-45
2022/12/07 02:00:36;;;;;;;4.85;4.20;;;;;;;3.12;100.00;98732.34;4206473;28;20305;-45
2022/12/07 02:02:45;;;;;;;5.72;5.15;;;;;;;3.06;100.00;98730.44;4236410;27;20213;-45
2022/12/07 02:04:52;;;;;;;6.78;6.18;;;;;;;3.08;100.00;98724.84;4219328;28;20209;-45
2022/12/07 02:06:57;;;;;;;5.93;5.53;;;;;;;3.13;100.00;98720.50;4240489;27;20755;-45
2022/12/07 02:08:58;;;;;;;5.28;4.78;;;;;;;3.11;100.00;98728.00;4239925;27;20245;-44
2022/12/07 02:11:02;;;;;;;4.65;4.25;;;;;;;3.18;100.00;98719.91;4221186;28;20325;-45
2022/12/07 02:13:19;;;;;;;6.38;5.65;;;;;;;3.13;100.00;98715.09;4205832;28;20258;-45
2022/12/07 02:15:22;;;;;;;5.43;4.30;;;;;;;3.16;100.00;98703.91;4209873;28;20230;-45
2022/12/07 02:17:41;;;;;;;5.20;4.70;;;;;;;3.14;100.00;98705.94;4219165;28;20293;-45
2022/12/07 02:19:54;;;;;;;5.75;5.22;;;;;;;2.99;100.00;98705.25;4207047;28;20203;-45
2022/12/07 02:22:05;;;;;;;4.05;3.75;;;;;;;2.99;100.00;98699.00;4225059;28;20288;-45
2022/12/07 02:24:15;;;;;;;5.72;5.07;;;;;;;3.07;100.00;98701.56;4225114;28;20210;-45
2022/12/07 02:26:28;;;;;;;4.85;4.03;;;;;;;3.00;100.00;98698.78;4221331;28;20878;-45
2022/12/07 02:28:44;;;;;;;5.22;4.72;;;;;;;3.01;100.00;98700.47;4220338;28;20285;-46
2022/12/07 02:30:48;;;;;;;5.10;4.65;;;;;;;3.03;100.00;98703.81;4218118;28;20202;-45
2022/12/07 02:33:02;;;;;;;5.47;4.97;;;;;;;2.99;100.00;98696.28;4238834;27;20999;-45
2022/12/07 02:35:56;;;;;;;4.45;4.05;;;;;;;3.04;100.00;98702.78;4221638;27;20248;-45
2022/12/07 02:38:31;;;;;;;5.35;4.32;;;;;;;3.04;100.00;98699.22;4208887;27;20313;-45
2022/12/07 02:40:43;;;;;;;5.30;3.80;;;;;;;3.17;100.00;98700.16;4240791;27;20295;-45
2022/12/07 02:42:51;;;;;;;5.72;5.07;;;;;;;3.14;100.00;98695.13;4241576;27;20243;-45
2022/12/07 02:44:53;;;;;;;6.75;5.72;;;;;;;3.10;100.00;98691.19;4239754;27;20290;-46
2022/12/07 02:47:01;;;;;;;5.03;4.53;;;;;;;3.09;100.00;98683.25;4228378;27;20257;-45
2022/12/07 02:49:03;;;;;;;5.35;4.78;;;;;;;3.04;100.00;98691.13;4223336;27;20765;-46
2022/12/07 02:51:05;;;;;;;9.23;5.28;;;;;;;3.04;100.00;98694.69;4243319;27;20296;-45
2022/12/07 02:53:40;;;;;;;5.25;4.75;;;;;;;2.98;100.00;98695.47;4239320;27;20240;-45
2022/12/07 02:55:42;;;;;;;4.22;3.83;;;;;;;3.05;100.00;98690.94;4228821;27;20747;-45
2022/12/07 02:58:02;;;;;;;6.00;5.40;;;;;;;3.03;100.00;98687.59;4242399;27;20563;-45
2022/12/07 03:00:09;;;;;;;4.50;4.10;;;;;;;3.15;100.00;98688.69;4220278;27;20677;-45
2022/12/07 03:02:14;;;;;;;5.78;5.22;;;;;;;3.05;100.00;98685.53;4207464;28;20198;-45
2022/12/07 03:04:27;;;;;;;5.25;4.75;;;;;;;2.94;100.00;98683.38;4223256;27;20205;-45
2022/12/07 03:06:36;;;;;;;5.18;4.65;;;;;;;2.94;100.00;98687.97;4241155;27;20256;-45
2022/12/07 03:08:49;;;;;;;5.00;4.50;;;;;;;3.02;100.00;98685.09;4223448;27;20252;-45
2022/12/07 03:11:02;;;;;;;5.32;4.82;;;;;;;3.05;100.00;98685.53;4224778;27;22433;-45
2022/12/07 03:13:41;;;;;;;4.35;3.95;;;;;;;3.02;100.00;98672.41;4225741;27;20655;-45
2022/12/07 03:15:50;;;;;;;5.30;4.78;;;;;;;3.16;100.00;98676.88;4239540;27;20313;-45
2022/12/07 03:17:53;;;;;;;4.70;4.18;;;;;;;3.05;100.00;98674.72;4237898;27;20658;-44
2022/12/07 03:19:58;;;;;;;5.78;4.90;;;;;;;3.01;100.00;98678.84;4241617;27;20664;-45
2022/12/07 03:22:03;;;;;;;4.80;4.40;;;;;;;3.00;100.00;98677.19;4228049;27;20715;-45
2022/12/07 03:24:09;;;;;;;7.88;5.03;;;;;;;2.95;100.00;98674.22;4226799;27;20649;-45
2022/12/07 03:26:13;;;;;;;4.70;4.30;;;;;;;2.96;100.00;98670.50;4243093;27;20617;-45
2022/12/07 03:28:18;;;;;;;4.47;4.07;;;;;;;2.98;100.00;98657.63;4241137;27;20244;-45
2022/12/07 03:30:28;;;;;;;4.38;3.92;;;;;;;2.90;100.00;98655.09;4241179;27;20237;-45
2022/12/07 03:32:41;;;;;;;8.48;4.75;;;;;;;2.88;100.00;98665.25;4243283;27;20213;-44
2022/12/07 03:34:55;;;;;;;5.00;4.53;;;;;;;2.90;100.00;98665.91;4239166;27;20225;-44
2022/12/07 03:37:14;;;;;;;7.30;5.28;;;;;;;2.99;100.00;98672.81;4242720;27;20618;-45
2022/12/07 03:39:29;;;;;;;6.00;5.45;;;;;;;3.01;100.00;98673.44;4223792;27;20237;-45
2022/12/07 03:41:33;;;;;;;5.30;4.75;;;;;;;3.04;100.00;98673.06;4210194;28;20252;-45
2022/12/07 03:43:36;;;;;;;5.10;4.50;;;;;;;2.99;100.00;98670.09;4223511;27;20213;-45
2022/12/07 03:45:41;;;;;;;4.07;3.78;;;;;;;3.05;100.00;98672.00;4224736;27;20319;-45
2022/12/07 03:47:52;;;;;;;4.72;4.32;;;;;;;3.10;100.00;98672.25;4222504;27;20305;-45
2022/12/07 03:50:19;;;;;;;5.32;4.85;;;;;;;3.10;100.00;98676.81;4223854;27;20701;-45
2022/12/07 03:52:30;;;;;;;5.70;5.20;;;;;;;2.97;100.00;98669.47;4211076;28;20599;-44
2022/12/07 03:54:34;;;;;;;5.53;4.82;;;;;;;3.04;100.00;98678.47;4226998;27;20221;-44
2022/12/07 03:56:36;;;;;;;6.28;5.68;;;;;;;3.06;100.00;98681.78;4226069;27;20612;-45
2022/12/07 03:58:39;;;;;;;5.72;5.22;;;;;;;3.05;100.00;98674.72;4223092;27;20671;-45
2022/12/07 04:00:42;;;;;;;5.45;4.95;;;;;;;3.05;100.00;98669.31;4226822;27;20202;-45
2022/12/07 04:02:44;;;;;;;5.65;4.97;;;;;;;2.96;100.00;98670.50;4228990;27;20210;-45
2022/12/07 04:04:46;;;;;;;5.82;5.15;;;;;;;3.00;100.00;98677.19;4222399;27;20210;-45
2022/12/07 04:06:48;;;;;;;6.22;5.30;;;;;;;3.05;100.00;98674.72;4207639;28;20258;-45
2022/12/07 04:08:49;;;;;;;5.68;5.13;;;;;;;3.05;100.00;98674.72;4210167;28;20634;-45
2022/12/07 04:10:51;;;;;;;5.85;5.35;;;;;;;3.10;100.00;98677.66;4223455;27;20277;-45
2022/12/07 04:12:53;;;;;;;6.55;5.30;;;;;;;3.00;100.00;98671.78;4243143;27;20233;-45
2022/12/07 04:14:55;;;;;;;6.10;5.20;;;;;;;3.07;100.00;98671.81;4227028;27;20264;-45
2022/12/07 04:16:58;;;;;;;4.78;3.88;;;;;;;3.10;100.00;98669.56;4226618;27;20231;-45
2022/12/07 04:18:59;;;;;;;9.88;5.28;;;;;;;3.09;100.00;98670.59;4243605;27;20713;-46
2022/12/07 04:21:01;;;;;;;6.18;4.78;;;;;;;3.00;100.00;98660.97;4220335;27;20681;-45
2022/12/07 04:23:03;;;;;;;4.70;4.10;;;;;;;3.14;100.00;98661.88;4206153;28;20629;-46
2022/12/07 04:25:05;;;;;;;7.80;5.10;;;;;;;3.02;100.00;98661.59;4223929;27;20293;-45
2022/12/07 04:27:07;;;;;;;4.85;4.45;;;;;;;3.03;100.00;98649.78;4239728;27;20658;-44
2022/12/07 04:29:09;;;;;;;4.88;4.35;;;;;;;3.03;100.00;98657.88;4228820;27;20198;-45
2022/12/07 04:31:11;;;;;;;6.03;5.43;;;;;;;3.00;100.00;98660.97;4228108;27;20279;-45
2022/12/07 04:33:13;;;;;;;5.57;5.07;;;;;;;3.08;100.00;98658.09;4226794;27;20209;-44
2022/12/07 04:35:15;;;;;;;5.78;5.28;;;;;;;3.00;100.00;98657.44;4240230;27;20221;-44
2022/12/07 04:37:17;;;;;;;7.35;4.68;;;;;;;2.97;100.00;98658.66;4238424;27;20316;-44
2022/12/07 04:39:26;;;;;;;5.00;4.57;;;;;;;3.02;100.00;98656.19;4239886;27;20230;-45
2022/12/07 04:41:28;;;;;;;5.40;4.97;;;;;;;2.94;100.00;98661.75;4239508;27;20296;-45
2022/12/07 04:43:30;;;;;;;5.35;4.80;;;;;;;3.06;100.00;98659.34;4227494;27;20372;-45
2022/12/07 04:45:32;;;;;;;5.93;4.80;;;;;;;2.94;100.00;98660.94;4206021;28;20963;-44
2022/12/07 04:47:35;;;;;;;6.90;6.20;;;;;;;2.96;100.00;98654.31;4215635;27;20221;-44
2022/12/07 04:49:39;;;;;;;6.43;5.88;;;;;;;2.91;100.00;98656.75;4237559;27;21784;-46
2022/12/07 04:51:44;;;;;;;7.57;6.18;;;;;;;2.96;100.00;98657.00;4216792;27;20206;-45
2022/12/07 04:53:46;;;;;;;4.95;4.45;;;;;;;3.01;100.00;98657.22;4219153;27;20281;-45
2022/12/07 04:55:48;;;;;;;6.32;5.72;;;;;;;2.91;100.00;98654.06;4220445;27;20249;-44
2022/12/07 04:57:50;;;;;;;11.02;5.25;;;;;;;3.11;100.00;98652.31;4237764;27;20206;-44
2022/12/07 04:59:52;;;;;;;7.10;5.18;;;;;;;3.05;100.00;98653.09;4222938;27;20305;-44
2022/12/07 05:01:54;;;;;;;5.15;4.72;;;;;;;2.99;100.00;98659.28;4238466;27;20244;-45
2022/12/07 05:03:56;;;;;;;5.88;5.32;;;;;;;3.06;100.00;98656.66;4238408;27;20216;-46
2022/12/07 05:05:57;;;;;;;6.68;6.07;;;;;;;3.02;100.00;98653.47;4223059;27;20629;-45
2022/12/07 05:07:59;;;;;;;5.80;5.28;;;;;;;2.99;100.00;98659.28;4220882;27;20629;-44
2022/12/07 05:10:01;;;;;;;6.50;5.78;;;;;;;3.04;100.00;98667.66;4223709;27;20205;-45
2022/12/07 05:12:03;;;;;;;5.40;5.00;;;;;;;3.15;100.00;98658.16;4220137;27;20219;-45
2022/12/07 05:14:17;;;;;;;7.88;6.57;;;;;;;3.14;100.00;98662.69;4221547;27;20213;-45
2022/12/07 05:16:19;;;;;;;7.13;5.68;;;;;;;3.09;100.00;98665.19;4221986;27;20237;-45
2022/12/07 05:18:21;;;;;;;6.25;5.70;;;;;;;3.10;100.00;98660.59;4238433;27;20203;-45
2022/12/07 05:20:22;;;;;;;5.97;4.75;;;;;;;3.14;100.00;98662.69;4205176;28;20288;-45
2022/12/07 05:22:27;;;;;;;5.85;5.35;;;;;;;3.13;100.00;98663.75;4241645;27;20266;-46
2022/12/07 05:24:29;;;;;;;6.43;5.47;;;;;;;3.11;100.00;98665.81;4222939;27;20797;-45
2022/12/07 05:26:31;;;;;;;6.25;5.65;;;;;;;3.03;100.00;98660.59;4218539;27;20229;-45
2022/12/07 05:28:33;;;;;;;6.38;5.78;;;;;;;2.95;100.00;98658.00;4221369;27;20313;-45
2022/12/07 05:30:35;;;;;;;7.53;6.82;;;;;;;2.95;100.00;98655.31;4239479;27;20616;-45
2022/12/07 05:32:36;;;;;;;13.40;6.05;;;;;;;2.89;100.00;98653.44;4218655;27;20341;-44
2022/12/07 05:34:38;;;;;;;12.65;7.03;;;;;;;2.94;100.00;98656.34;4206812;27;21160;-45
2022/12/07 05:36:40;;;;;;;6.57;5.80;;;;;;;2.99;100.00;98647.63;4238546;27;20311;-45
2022/12/07 05:38:42;;;;;;;6.82;6.15;;;;;;;3.05;100.00;98653.09;4237920;27;20225;-45
2022/12/07 05:40:44;;;;;;;6.85;6.22;;;;;;;3.02;100.00;98652.66;4234911;27;20204;-45
2022/12/07 05:42:45;;;;;;;6.90;5.32;;;;;;;3.06;100.00;98654.75;4236836;27;20216;-44
2022/12/07 05:44:47;;;;;;;6.22;5.65;;;;;;;3.04;100.00;98656.00;4210561;28;20202;-45
2022/12/07 05:46:49;;;;;;;8.07;6.70;;;;;;;3.03;100.00;98655.19;4201855;28;20749;-45
2022/12/07 05:48:51;;;;;;;6.45;5.68;;;;;;;3.02;100.00;98658.06;4206861;28;20650;-45
2022/12/07 05:50:53;;;;;;;7.88;7.15;;;;;;;3.06;100.00;98659.34;4237884;27;20239;-45
2022/12/07 05:52:54;;;;;;;6.82;6.28;;;;;;;3.08;100.00;98658.09;4225629;27;20205;-45
2022/12/07 05:54:56;;;;;;;6.63;5.85;;;;;;;3.08;100.00;98662.69;4222815;27;20198;-45
2022/12/07 05:56:58;;;;;;;6.95;6.30;;;;;;;3.06;100.00;98659.34;4223908;27;20224;-45
2022/12/07 06:01:20;;;;;;;6.93;6.22;;;;;;;3.10;100.00;98658.75;4236149;27;20599;-44
2022/12/07 06:03:22;;;;;;;6.90;6.30;;;;;;;3.02;100.00;98660.78;4222319;28;20312;-45
2022/12/07 06:05:24;;;;;;;9.15;6.53;;;;;;;3.06;100.00;98660.16;4219543;28;20202;-45
2022/12/07 06:07:26;;;;;;;6.75;6.20;;;;;;;2.99;100.00;98659.28;4204449;28;20626;-45
2022/12/07 06:09:28;;;;;;;5.85;5.35;;;;;;;3.05;100.00;98658.50;4207205;28;20287;-44
2022/12/07 06:13:50;;;;;;;7.70;7.05;;;;;;;3.04;100.00;98656.00;4223164;27;20209;-45
2022/12/07 06:15:55;;;;;;;9.95;6.53;;;;;;;3.05;100.00;98663.91;4228664;27;20229;-45
2022/12/07 06:17:58;;;;;;;7.55;6.72;;;;;;;3.01;100.00;98659.91;4224578;27;20213;-45
2022/12/07 06:20:00;;;;;;;8.23;6.85;;;;;;;3.07;100.00;98661.84;4243848;27;20231;-45
2022/12/07 06:22:04;;;;;;;7.57;6.88;;;;;;;3.13;100.00;98654.81;4223381;27;20206;-45
2022/12/07 06:24:06;;;;;;;6.85;6.15;;;;;;;3.10;100.00;98661.44;4222594;27;20205;-45
2022/12/07 06:26:08;;;;;;;7.68;6.97;;;;;;;3.08;100.00;98658.09;4210105;28;20279;-45
2022/12/07 06:28:10;;;;;;;6.85;6.18;;;;;;;3.13;100.00;98663.75;4226857;27;20574;-45
2022/12/07 06:30:13;;;;;;;7.97;6.68;;;;;;;3.09;100.00;98658.94;4221631;27;20210;-44
2022/12/07 06:32:15;;;;;;;7.70;6.93;;;;;;;3.12;100.00;98659.38;4224380;27;20194;-45
2022/12/07 06:34:20;;;;;;;7.10;6.43;;;;;;;3.19;100.00;98654.84;4223725;27;20253;-44
2022/12/07 06:36:22;;;;;;;7.90;7.13;;;;;;;3.18;100.00;98655.88;4227205;27;20229;-45
2022/12/07 06:38:27;;;;;;;8.75;7.68;;;;;;;3.12;100.00;98658.53;4230055;27;20255;-45
2022/12/07 06:40:29;;;;;;;9.00;6.93;;;;;;;3.11;100.00;98659.56;4225158;27;20247;-45
2022/12/07 06:42:31;;;;;;;8.00;7.30;;;;;;;3.11;100.00;98660.41;4223605;27;21000;-45
2022/12/07 06:44:33;;;;;;;11.23;8.02;;;;;;;2.99;100.00;98662.00;4225629;27;20210;-44
2022/12/07 06:46:36;;;;;;;8.90;7.85;;;;;;;3.05;100.00;98658.50;4209864;27;20266;-45
2022/12/07 06:48:38;;;;;;;11.20;8.38;;;;;;;3.19;100.00;98660.25;4242539;27;20229;-45
2022/12/07 06:50:40;;;;;;;9.85;8.77;;;;;;;3.07;100.00;98661.84;4206739;28;20255;-45
2022/12/07 06:52:42;;;;;;;9.90;8.90;;;;;;;3.16;100.00;98668.78;4223110;27;20205;-45
2022/12/07 06:54:44;;;;;;;8.63;7.72;;;;;;;3.09;100.00;98664.34;4220884;27;20228;-45
2022/12/07 06:56:46;;;;;;;8.52;7.53;;;;;;;3.11;100.00;98668.53;4207613;28;20757;-44
2022/12/07 06:58:49;;;;;;;8.77;7.50;;;;;;;3.03;100.00;98671.38;4223876;27;20309;-45
2022/12/07 07:00:51;;;;;;;9.18;8.38;;;;;;;3.05;100.00;98668.47;4222770;27;20207;-45
2022/12/07 07:02:53;;;;;;;9.02;8.23;;;;;;;3.03;100.00;98668.69;4240110;27;20205;-45
2022/12/07 07:04:55;;;;;;;9.93;8.95;;;;;;;3.12;100.00;98664.78;4206628;27;20210;-44
2022/12/07 07:06:58;;;;;;;8.38;7.57;;;;;;;3.15;100.00;98672.47;4227042;27;20260;-45
2022/12/07 07:09:01;;;;;;;7.95;7.25;;;;;;;3.10;100.00;98666.00;4244091;27;20213;-45
2022/12/07 07:11:07;;;;;;;8.93;8.02;;;;;;;3.09;100.00;98670.59;4241726;27;20240;-45
2022/12/07 07:13:09;;;;;;;7.95;7.18;;;;;;;3.01;100.00;98670.72;4207423;28;20282;-45
2022/12/07 07:15:11;;;;;;;9.40;8.65;;;;;;;3.17;100.00;98670.44;4212395;28;20266;-45
2022/12/07 07:17:13;;;;;;;9.13;8.27;;;;;;;3.24;100.00;98671.31;4206810;28;20674;-45
2022/12/07 07:19:15;;;;;;;9.80;8.80;;;;;;;3.08;100.00;98671.59;4225650;27;20208;-45
2022/12/07 07:21:18;;;;;;;8.63;7.82;;;;;;;3.16;100.00;98666.06;4219989;27;20217;-45
2022/12/07 07:23:21;;;;;;;8.27;7.40;;;;;;;3.15;100.00;98664.38;4241021;27;20318;-45
2022/12/07 07:25:23;;;;;;;9.40;7.35;;;;;;;3.21;100.00;98666.28;4224711;27;20206;-45
2022/12/07 07:27:25;;;;;;;8.77;7.97;;;;;;;3.11;100.00;98668.53;4223602;27;20300;-45
2022/12/07 07:29:27;;;;;;;11.63;7.78;;;;;;;3.18;100.00;98668.53;4236862;27;20233;-45
2022/12/07 07:31:29;;;;;;;9.73;7.65;;;;;;;3.23;100.00;98675.03;4208583;28;20757;-45
2022/12/07 07:33:31;;;;;;;9.02;8.13;;;;;;;3.19;100.00;98676.47;4205292;28;20207;-45
2022/12/07 07:35:34;;;;;;;8.05;7.30;;;;;;;3.17;100.00;98672.28;4210220;28;20297;-45
2022/12/07 07:37:36;;;;;;;9.75;8.82;;;;;;;3.14;100.00;98673.50;4224760;27;20242;-45
2022/12/07 07:39:38;;;;;;;9.25;8.35;;;;;;;3.30;100.00;98673.22;4224530;27;20684;-45
2022/12/07 07:41:40;;;;;;;8.43;7.60;;;;;;;3.30;100.00;98689.44;4226520;27;20342;-45
2022/12/07 07:43:42;;;;;;;10.63;8.63;;;;;;;3.24;100.00;98679.41;4226473;27;20657;-45
2022/12/07 07:45:45;;;;;;;9.07;8.18;;;;;;;3.26;100.00;98676.50;4242874;27;20217;-45
2022/12/07 07:47:48;;;;;;;8.90;8.07;;;;;;;3.21;100.00;98685.19;4225087;27;20581;-45
2022/12/07 07:49:50;;;;;;;8.85;8.00;;;;;;;3.20;100.00;98686.22;4225328;27;20218;-45
2022/12/07 07:51:52;;;;;;;8.55;7.65;;;;;;;3.32;100.00;98683.78;4226265;27;20705;-45
2022/12/07 07:53:54;;;;;;;8.52;7.80;;;;;;;3.32;100.00;98681.09;4221695;27;20218;-45
2022/12/07 07:55:58;;;;;;;8.48;7.57;;;;;;;3.26;100.00;98682.75;4226866;27;20809;-45
2022/12/07 07:58:00;;;;;;;7.50;6.32;;;;;;;3.31;100.00;98684.84;4208599;28;20240;-45
2022/12/07 08:00:05;;;;;;;8.70;7.38;;;;;;;3.26;100.00;98688.16;4221354;27;20230;-45
2022/12/07 08:02:14;;;;;;;8.27;7.43;;;;;;;3.25;100.00;98689.19;4219911;27;21723;-45
2022/12/07 08:04:16;;;;;;;7.93;7.15;;;;;;;3.27;100.00;98695.22;4224765;27;20265;-45
2022/12/07 08:06:17;;;;;;;8.05;7.25;;;;;;;3.23;100.00;98688.56;4225588;27;20310;-46
2022/12/07 08:08:19;;;;;;;7.80;6.97;;;;;;;3.34;100.00;98701.50;4239179;27;20626;-45
2022/12/07 08:10:21;;;;;;;9.20;8.30;;;;;;;3.32;100.00;98703.56;4207972;28;20227;-45
2022/12/07 08:12:23;;;;;;;12.10;8.82;;;;;;;3.36;100.00;98702.16;4225333;27;20206;-45
2022/12/07 08:14:27;;;;;;;9.48;8.57;;;;;;;3.38;100.00;98702.78;4219867;27;20248;-45
2022/12/07 08:16:37;;;;;;;12.65;8.02;;;;;;;3.39;100.00;98709.84;4207856;28;20835;-45
2022/12/07 08:18:48;;;;;;;9.05;8.13;;;;;;;3.40;100.00;98700.69;4205818;27;20203;-45
2022/12/07 08:20:50;;;;;;;14.35;8.88;;;;;;;3.35;100.00;98711.28;4203293;28;20262;-45
2022/12/07 08:22:52;;;;;;;10.13;9.13;;;;;;;3.46;100.00;98707.19;4220676;27;20427;-45
2022/12/07 08:24:58;;;;;;;10.00;9.05;;;;;;;3.48;100.00;98705.94;4227527;27;20214;-45
2022/12/07 08:27:00;;;;;;;11.88;10.77;;;;;;;3.49;100.00;98707.63;4240543;27;20573;-45
2022/12/07 08:29:02;;;;;;;11.35;10.27;;;;;;;3.53;100.00;98708.88;4212388;28;20241;-44
2022/12/07 08:31:09;;;;;;;10.98;9.93;;;;;;;3.59;100.00;98710.78;4240878;27;20702;-45
2022/12/07 08:33:22;;;;;;;11.73;10.63;;;;;;;3.62;100.00;98715.81;4203496;28;20203;-44
2022/12/07 08:35:25;;;;;;;9.93;8.65;;;;;;;3.60;100.00;98714.34;4227550;27;20210;-45
2022/12/07 08:37:26;;;;;;;9.13;8.23;;;;;;;3.62;100.00;98715.81;4224348;27;20921;-43
2022/12/07 08:39:28;;;;;;;10.23;9.32;;;;;;;3.57;100.00;98712.88;4241550;27;20197;-44
2022/12/07 08:41:33;;;;;;;8.20;7.40;;;;;;;3.54;100.00;98717.84;4205745;27;20223;-45
2022/12/07 08:43:36;;;;;;;9.27;8.38;;;;;;;3.54;100.00;98721.38;4232918;27;20201;-46
2022/12/07 08:45:40;;;;;;;8.68;7.75;;;;;;;3.53;100.00;98717.00;4199587;28;20267;-44
2022/12/07 08:47:46;;;;;;;14.18;12.50;;;;;;;3.54;100.00;98712.44;4240193;27;20197;-45
2022/12/07 08:49:49;;;;;;;11.65;10.50;;;;;;;3.54;100.00;98712.44;4218936;27;20310;-44
2022/12/07 08:51:51;;;;;;;10.57;9.70;;;;;;;3.65;100.00;98709.13;4216704;27;20237;-46
2022/12/07 08:53:54;;;;;;;10.50;9.35;;;;;;;3.63;100.00;98713.91;4204778;28;20257;-45
2022/12/07 08:55:56;;;;;;;8.38;7.47;;;;;;;3.68;100.00;98703.34;4225399;27;20645;-45
2022/12/07 08:57:59;;;;;;;8.57;7.78;;;;;;;3.68;100.00;98708.75;4225085;27;20206;-45
2022/12/07 09:00:01;;;;;;;11.70;6.97;;;;;;;3.71;100.00;98698.34;4220937;27;20230;-45
2022/12/07 09:02:04;;;;;;;7.57;6.85;;;;;;;3.79;100.00;98695.47;4224370;27;21073;-45
2022/12/07 09:04:06;;;;;;;8.32;7.53;;;;;;;3.82;100.00;98697.78;4221799;27;20568;-45
2022/12/07 09:06:08;;;;;;;8.35;7.55;;;;;;;3.78;100.00;98696.50;4219552;27;20671;-44
2022/12/07 09:08:10;;;;;;;8.18;7.38;;;;;;;3.89;100.00;98695.06;4210951;28;20373;-45
2022/12/07 09:10:12;;;;;;;9.02;8.05;;;;;;;3.85;100.00;98700.06;4223450;27;20732;-45
2022/12/07 09:12:14;;;;;;;15.00;8.93;;;;;;;3.94;100.00;98698.84;4239657;27;20212;-44
2022/12/07 09:14:17;;;;;;;7.82;7.13;;;;;;;3.97;100.00;98709.28;4225908;27;20244;-45
2022/12/07 09:16:18;;;;;;;13.80;8.70;;;;;;;3.94;100.00;98701.53;4219011;27;20272;-45
2022/12/07 09:18:20;;;;;;;10.48;8.55;;;;;;;3.94;100.00;98698.84;4220448;27;20213;-46
2022/12/07 09:20:22;;;;;;;9.18;7.03;;;;;;;3.95;100.00;98710.50;4221768;27;20194;-45
2022/12/07 09:22:30;;;;;;;9.23;8.35;;;;;;;3.89;100.00;98695.94;4223217;27;20214;-46
2022/12/07 09:24:32;;;;;;;9.52;8.57;;;;;;;3.87;100.00;98708.00;4223914;27;20295;-44
2022/12/07 09:26:34;;;;;;;7.75;6.95;;;;;;;3.96;100.00;98707.59;4220686;27;20360;-45
2022/12/07 09:28:38;;;;;;;9.85;8.93;;;;;;;4.01;100.00;98707.81;4238893;27;20209;-45
2022/12/07 09:30:48;;;;;;;8.15;7.32;;;;;;;4.02;100.00;98706.78;4237479;27;20281;-45
2022/12/07 09:33:10;;;;;;;6.90;6.18;;;;;;;4.11;100.00;98704.72;4226076;27;20685;-44
2022/12/07 09:35:12;;;;;;;8.88;8.07;;;;;;;4.26;100.00;98708.91;4220245;28;20298;-47
2022/12/07 09:37:13;;;;;;;7.57;6.80;;;;;;;4.22;100.00;98710.38;4224564;27;20237;-46
2022/12/07 09:39:15;;;;;;;8.20;7.40;;;;;;;4.35;100.00;98713.09;4224159;27;20228;-45
2022/12/07 09:41:17;;;;;;;8.88;8.07;;;;;;;4.34;100.00;98710.59;4228385;27;20768;-45
2022/12/07 09:43:22;;;;;;;8.65;7.78;;;;;;;4.35;100.00;98710.38;4235721;27;20237;-45
2022/12/07 09:45:34;;;;;;;8.27;7.22;;;;;;;4.44;100.00;98706.44;4223486;27;20285;-45
2022/12/07 09:47:36;;;;;;;7.57;6.88;;;;;;;4.52;100.00;98703.53;4235538;27;20287;-44
2022/12/07 09:49:38;;;;;;;8.52;7.63;;;;;;;4.51;100.00;98710.00;4225178;27;20212;-44